Canovanas, PR

5:21 PM AST on December 10, 2016 (GMT -0400)
Manejo de Emergencias Canovanas | | Change Station

Elev 56 ft 18.38 °N, 65.90 °W | Updated 4 minutes ago

Partly Cloudy
Partly Cloudy
81.6 °F
Feels Like 93 °F
N
3.0
Wind Variable Wind from ESE
Gusts 7.0 mph

Today
High -- | Low -- °F
--% Chance of Precip.
Yesterday
High -- | Low -- °F
Precip. -- in
Pressure 30.02 in
Visibility 10.0 miles
Clouds Few 2400 ft
Scattered Clouds 6000 ft
Scattered Clouds 11000 ft
Heat Index 93 °F
Dew Point 82 °F
Humidity 100%
Rainfall Not available.
Snow Depth Not available.
6:45 AM 5:48 PM
Waxing Gibbous, 86% visible
METAR TJSJ 102056Z 08008KT 10SM -RA FEW024 SCT060 SCT110 29/24 A3002 RMK AO2 RAB56 SLP166 P0000 60000 T02890239 55001 $
Pressure 30.02 in
Visibility 10.0 miles
Clouds Few 2400 ft
Scattered Clouds 6000 ft
Scattered Clouds 11000 ft
Heat Index 93 °F
Dew Point 82 °F
Humidity 100%
Rainfall Not available.
Snow Depth Not available.
6:45 AM 5:48 PM
Waxing Gibbous, 86% visible
METAR TJSJ 102056Z 08008KT 10SM -RA FEW024 SCT060 SCT110 29/24 A3002 RMK AO2 RAB56 SLP166 P0000 60000 T02890239 55001 $

10-Day Weather Forecast

Almanac

Astronomy

Dec. 10, 2016 Rise Set
Actual Time
Civil Twilight
Nautical Twilight
Astronomical Twilight
Moon
Length of Visible Light
Length of Day
Tomorrow will be .
, % of the Moon is Illuminated

Today's Extremes

State Highs State Lows

Community

WunderPhotos

Upload Photos

1,956,664 photos uploaded!

WunderBlog® & News

Nearby

Air Quality

  Air Quality AQ Index Pollutant
Not available.

Snow Depth

Station Depth Elevation

Earthquake Activity

City Distance Mag. Time & Date
Minimum magnitude displayed is 2.5.

Coastal Water Temperatures

Place Temperature

Stations

Nearby Weather Stations

Station Location Temp. Windchill Dew Point Humidity Wind Precip. Elev Updated Type
                   

Watches & Warnings

There are currently no watches in effect.